createdAt,value
2023-03-18T00:01:14.809Z,-2.54
2023-03-18T00:03:43.360Z,-2.62
2023-03-18T00:06:14.196Z,-2.63
2023-03-18T00:08:43.460Z,-2.71
2023-03-18T00:11:13.061Z,-2.67
2023-03-18T00:13:45.477Z,-2.54
2023-03-18T00:16:15.734Z,-2.60
2023-03-18T00:18:44.782Z,-2.70
2023-03-18T00:21:13.513Z,-2.63
2023-03-18T00:23:42.216Z,-2.64
2023-03-18T00:26:10.952Z,-2.87
2023-03-18T00:28:43.189Z,-2.71
2023-03-18T00:31:14.185Z,-2.61
2023-03-18T00:33:46.697Z,-2.66
2023-03-18T00:36:16.806Z,-2.54
2023-03-18T00:38:51.293Z,-2.64
2023-03-18T00:41:20.065Z,-2.72
2023-03-18T00:43:52.884Z,-2.72
2023-03-18T00:46:24.641Z,-2.70
2023-03-18T00:48:56.646Z,-2.64
2023-03-18T00:51:26.651Z,-2.70
2023-03-18T00:53:56.942Z,-2.81
2023-03-18T00:56:28.019Z,-2.88
2023-03-18T00:58:57.339Z,-2.76
2023-03-18T01:01:26.560Z,-2.68
2023-03-18T01:03:56.645Z,-2.74
2023-03-18T01:06:26.471Z,-2.64
2023-03-18T01:08:55.465Z,-2.71
2023-03-18T01:11:26.269Z,-2.74
2023-03-18T01:13:55.121Z,-2.62
2023-03-18T01:16:23.721Z,-2.65
2023-03-18T01:18:52.748Z,-2.68
2023-03-18T01:21:22.773Z,-2.78
2023-03-18T01:23:56.247Z,-2.65
2023-03-18T01:26:26.312Z,-2.59
2023-03-18T01:28:57.101Z,-2.77
2023-03-18T01:31:26.149Z,-2.76
2023-03-18T01:33:58.516Z,-2.84
2023-03-18T01:36:28.499Z,-2.81
2023-03-18T01:39:07.175Z,-2.83
2023-03-18T01:41:36.678Z,-2.86
2023-03-18T01:44:06.063Z,-2.74
2023-03-18T01:46:37.724Z,-2.69
2023-03-18T01:49:10.345Z,-2.80
2023-03-18T01:51:41.864Z,-2.80
2023-03-18T01:54:14.713Z,-2.95
2023-03-18T01:56:44.674Z,-2.77
2023-03-18T01:59:14.432Z,-2.87
2023-03-18T02:01:46.829Z,-2.86
2023-03-18T02:06:45.682Z,-2.74
2023-03-18T02:09:14.483Z,-2.70
2023-03-18T02:11:50.054Z,-2.79
2023-03-18T02:14:20.858Z,-2.82
2023-03-18T02:16:53.910Z,-2.90
2023-03-18T02:19:32.116Z,-2.95
2023-03-18T02:22:12.761Z,-2.98
2023-03-18T02:24:47.487Z,-2.91
2023-03-18T02:27:21.188Z,-3.06
2023-03-18T02:29:50.064Z,-2.99
2023-03-18T02:32:21.906Z,-2.93
2023-03-18T02:34:50.973Z,-2.96
2023-03-18T02:37:19.312Z,-3.02
2023-03-18T02:39:48.332Z,-3.06
2023-03-18T02:42:18.414Z,-3.10
2023-03-18T02:44:53.698Z,-3.15
2023-03-18T02:47:44.026Z,-3.21
2023-03-18T02:50:12.907Z,-3.30
2023-03-18T02:52:41.704Z,-3.36
2023-03-18T02:55:10.874Z,-3.50
2023-03-18T02:57:39.167Z,-3.47
2023-03-18T03:00:11.236Z,-3.64
2023-03-18T03:02:39.840Z,-3.46
2023-03-18T03:05:10.720Z,-3.48
2023-03-18T03:07:40.239Z,-3.39
2023-03-18T03:10:11.675Z,-3.35
2023-03-18T03:12:41.410Z,-3.40
2023-03-18T03:15:13.508Z,-3.30
2023-03-18T03:17:48.482Z,-3.31
2023-03-18T03:20:19.196Z,-3.38
2023-03-18T03:22:48.049Z,-3.50
2023-03-18T03:25:19.841Z,-3.37
2023-03-18T03:27:48.574Z,-3.37
2023-03-18T03:30:18.574Z,-3.38
2023-03-18T03:32:47.741Z,-3.33
2023-03-18T03:35:18.883Z,-3.53
2023-03-18T03:37:48.103Z,-3.49
2023-03-18T03:40:19.297Z,-3.51
2023-03-18T03:42:49.292Z,-3.40
2023-03-18T03:45:20.221Z,-3.43
2023-03-18T03:47:49.237Z,-3.54
2023-03-18T03:50:18.389Z,-3.46
2023-03-18T03:52:47.104Z,-3.39
2023-03-18T03:55:17.743Z,-3.43
2023-03-18T03:57:46.345Z,-3.31
2023-03-18T04:00:18.699Z,-3.31
2023-03-18T04:02:52.436Z,-3.48
2023-03-18T04:05:24.137Z,-3.46
2023-03-18T04:07:53.226Z,-3.34
2023-03-18T04:10:30.720Z,-3.40
2023-03-18T04:13:02.116Z,-3.37
2023-03-18T04:15:30.733Z,-3.24
2023-03-18T04:18:07.868Z,-3.28
2023-03-18T04:20:38.038Z,-3.20
2023-03-18T04:23:14.298Z,-3.37
2023-03-18T04:25:42.903Z,-3.33
2023-03-18T04:28:11.161Z,-3.28
2023-03-18T04:30:39.850Z,-3.18
2023-03-18T04:33:14.476Z,-3.20
2023-03-18T04:35:43.944Z,-3.19
2023-03-18T04:38:14.468Z,-3.22
2023-03-18T04:40:43.296Z,-3.18
2023-03-18T04:43:11.598Z,-3.16
2023-03-18T04:45:40.542Z,-3.21
2023-03-18T04:48:09.047Z,-3.21
2023-03-18T04:50:43.772Z,-3.02
2023-03-18T04:53:16.843Z,-2.95
2023-03-18T04:55:46.376Z,-2.91
2023-03-18T04:58:17.258Z,-2.91
2023-03-18T05:00:57.729Z,-2.90
2023-03-18T05:03:32.714Z,-2.83
2023-03-18T05:06:02.891Z,-2.83
2023-03-18T05:08:41.204Z,-2.74
2023-03-18T05:11:10.887Z,-2.78
2023-03-18T05:13:40.722Z,-2.74
2023-03-18T05:16:10.737Z,-2.71
2023-03-18T05:18:39.518Z,-2.64
2023-03-18T05:21:10.275Z,-2.57
2023-03-18T05:23:40.390Z,-2.57
2023-03-18T05:26:09.918Z,-2.54
2023-03-18T05:28:40.335Z,-2.50
2023-03-18T05:31:35.401Z,-2.46
2023-03-18T05:34:04.164Z,-2.42
2023-03-18T05:36:38.473Z,-2.42
2023-03-18T05:39:10.851Z,-2.36
2023-03-18T05:41:40.918Z,-2.27
2023-03-18T05:44:12.570Z,-2.20
2023-03-18T05:46:42.986Z,-2.16
2023-03-18T05:49:29.529Z,-2.08
2023-03-18T05:52:16.630Z,-2.07
2023-03-18T05:54:48.336Z,-1.98
2023-03-18T05:57:21.544Z,-1.87
2023-03-18T05:59:52.426Z,-1.86
2023-03-18T06:02:21.279Z,-1.80
2023-03-18T06:04:50.001Z,-1.71
2023-03-18T06:07:20.786Z,-1.58
2023-03-18T06:09:50.087Z,-1.26
2023-03-18T06:12:20.424Z,-1.42
2023-03-18T06:14:48.671Z,-1.38
2023-03-18T06:17:18.642Z,-1.33
2023-03-18T06:19:49.983Z,-1.17
2023-03-18T06:22:19.844Z,-1.16
2023-03-18T06:24:48.571Z,-1.17
2023-03-18T06:27:19.451Z,-1.08
2023-03-18T06:29:54.377Z,-1.08
2023-03-18T06:32:23.266Z,-1.05
2023-03-18T06:34:52.610Z,-1.01
2023-03-18T06:37:23.153Z,-0.99
2023-03-18T06:39:52.254Z,-0.90
2023-03-18T06:42:20.653Z,-0.95
2023-03-18T06:44:58.728Z,-0.88
2023-03-18T06:47:39.415Z,-0.84
2023-03-18T06:50:08.470Z,-0.73
2023-03-18T06:52:39.610Z,-0.66
2023-03-18T06:55:15.029Z,-0.73
2023-03-18T06:57:47.900Z,-0.62
2023-03-18T07:00:21.938Z,-0.53
2023-03-18T07:02:53.598Z,-0.50
2023-03-18T07:05:26.577Z,-0.33
2023-03-18T07:07:57.510Z,-0.37
2023-03-18T07:10:27.458Z,-0.29
2023-03-18T07:13:01.824Z,-0.25
2023-03-18T07:15:30.646Z,-0.20
2023-03-18T07:18:03.026Z,-0.24
2023-03-18T07:20:32.962Z,-0.14
2023-03-18T07:23:03.323Z,-0.05
2023-03-18T07:25:32.629Z,0.02
2023-03-18T07:28:01.492Z,0.04
2023-03-18T07:30:30.499Z,0.14
2023-03-18T07:32:58.912Z,0.26
2023-03-18T07:35:29.050Z,0.27
2023-03-18T07:37:57.627Z,0.33
2023-03-18T07:40:27.659Z,0.43
2023-03-18T07:42:56.090Z,0.51
2023-03-18T07:45:24.679Z,0.50
2023-03-18T07:47:53.629Z,0.62
2023-03-18T07:50:22.257Z,0.77
2023-03-18T07:52:50.910Z,0.85
2023-03-18T07:55:19.949Z,0.89
2023-03-18T07:57:49.755Z,0.95
2023-03-18T08:00:19.541Z,1.05
2023-03-18T08:02:48.040Z,0.93
2023-03-18T08:05:19.898Z,0.79
2023-03-18T08:07:48.596Z,1.02
2023-03-18T08:10:18.210Z,1.12
2023-03-18T08:12:53.002Z,1.05
2023-03-18T08:15:26.157Z,1.29
2023-03-18T08:17:56.073Z,1.23
2023-03-18T08:20:24.377Z,1.40
2023-03-18T08:22:52.841Z,1.34
2023-03-18T08:25:23.086Z,1.26
2023-03-18T08:27:52.461Z,1.58
2023-03-18T08:30:21.337Z,1.77
2023-03-18T08:32:51.083Z,1.76
2023-03-18T08:35:21.353Z,1.88
2023-03-18T08:37:51.526Z,1.80
2023-03-18T08:40:20.747Z,1.88
2023-03-18T08:42:49.128Z,1.98
2023-03-18T08:45:17.722Z,2.11
2023-03-18T08:47:46.183Z,2.19
2023-03-18T08:51:28.897Z,2.05
2023-03-18T08:53:59.789Z,1.99
2023-03-18T08:56:28.621Z,2.11
2023-03-18T08:58:57.357Z,2.23
2023-03-18T09:01:33.552Z,2.15
2023-03-18T09:04:03.253Z,2.07
2023-03-18T09:06:31.553Z,2.06
2023-03-18T09:09:01.446Z,2.07
2023-03-18T09:11:30.001Z,2.22
2023-03-18T09:13:58.462Z,2.07
2023-03-18T09:16:27.320Z,1.96
2023-03-18T09:18:55.732Z,2.03
2023-03-18T09:21:24.154Z,2.15
2023-03-18T09:23:52.875Z,2.14
2023-03-18T09:26:22.558Z,2.27
2023-03-18T09:28:52.014Z,2.17
2023-03-18T09:31:20.804Z,2.48
2023-03-18T09:33:49.445Z,2.50
2023-03-18T09:36:18.292Z,2.59
2023-03-18T09:38:46.806Z,2.55
2023-03-18T09:41:31.096Z,2.62
2023-03-18T09:44:08.562Z,2.76
2023-03-18T09:46:45.276Z,2.92
2023-03-18T09:49:44.170Z,2.94
2023-03-18T09:52:22.447Z,2.88
2023-03-18T09:54:58.348Z,2.75
2023-03-18T09:57:31.312Z,2.89
2023-03-18T10:00:05.245Z,2.94
2023-03-18T10:02:41.780Z,2.94
2023-03-18T10:05:14.108Z,2.92
2023-03-18T10:07:44.715Z,2.86
2023-03-18T10:10:21.165Z,2.91
2023-03-18T10:12:54.195Z,3.04
2023-03-18T10:15:26.399Z,3.10
2023-03-18T10:17:57.454Z,3.23
2023-03-18T10:20:31.277Z,3.33
2023-03-18T10:23:05.023Z,3.01
2023-03-18T10:25:37.436Z,3.09
2023-03-18T10:28:36.905Z,3.14
2023-03-18T10:31:13.635Z,3.19
2023-03-18T10:33:46.534Z,3.29
2023-03-18T10:36:20.326Z,3.26
2023-03-18T10:38:50.619Z,3.39
2023-03-18T10:41:24.921Z,3.37
2023-03-18T10:43:59.340Z,3.19
2023-03-18T10:46:28.436Z,3.18
2023-03-18T10:49:00.292Z,3.10
2023-03-18T10:51:32.787Z,3.17
2023-03-18T10:54:04.852Z,3.29
2023-03-18T10:56:33.500Z,3.20
2023-03-18T10:59:03.422Z,3.14
2023-03-18T11:01:31.919Z,3.27
2023-03-18T11:04:03.515Z,3.37
2023-03-18T11:06:38.375Z,3.18
2023-03-18T11:09:08.618Z,3.29
2023-03-18T11:11:39.282Z,3.28
2023-03-18T11:14:17.248Z,3.29
2023-03-18T11:16:50.281Z,3.38
2023-03-18T11:19:32.466Z,3.40
2023-03-18T11:22:04.511Z,3.30
2023-03-18T11:24:42.641Z,3.38
2023-03-18T11:27:30.396Z,3.19
2023-03-18T11:30:05.944Z,3.29
2023-03-18T11:32:37.264Z,3.35
2023-03-18T11:35:07.732Z,3.37
2023-03-18T11:37:37.971Z,3.36
2023-03-18T11:40:20.832Z,3.31
2023-03-18T11:42:49.937Z,3.25
2023-03-18T11:45:33.421Z,3.26
2023-03-18T11:48:03.662Z,3.18
2023-03-18T11:50:41.790Z,3.07
2023-03-18T11:53:16.083Z,3.14
2023-03-18T11:55:47.243Z,3.18
2023-03-18T11:58:31.413Z,3.04
2023-03-18T12:01:11.878Z,3.14
2023-03-18T12:04:11.880Z,3.22
2023-03-18T12:06:42.986Z,3.01
2023-03-18T12:09:18.876Z,3.07
2023-03-18T12:12:04.728Z,3.04
2023-03-18T12:14:36.370Z,3.04
2023-03-18T12:17:19.002Z,2.99
2023-03-18T12:20:07.461Z,3.12
2023-03-18T12:22:54.536Z,3.06
2023-03-18T12:25:31.630Z,3.05
2023-03-18T12:28:03.675Z,3.10
2023-03-18T12:30:51.019Z,3.21
2023-03-18T12:33:39.396Z,3.14
2023-03-18T12:36:17.534Z,3.18
2023-03-18T12:39:09.778Z,3.11
2023-03-18T12:41:46.992Z,3.07
2023-03-18T12:44:29.825Z,3.10
2023-03-18T12:47:02.112Z,3.13
2023-03-18T12:49:34.936Z,3.13
2023-03-18T12:52:06.726Z,3.16
2023-03-18T12:54:39.083Z,3.22
2023-03-18T12:57:12.832Z,3.17
2023-03-18T12:59:45.303Z,3.24
2023-03-18T13:02:37.514Z,3.24
2023-03-18T13:05:18.576Z,3.17
2023-03-18T13:07:50.797Z,3.22
2023-03-18T13:10:26.823Z,3.29
2023-03-18T13:12:57.794Z,3.19
2023-03-18T13:15:32.236Z,3.18
2023-03-18T13:18:01.686Z,3.21
2023-03-18T13:20:35.108Z,3.26
2023-03-18T13:23:18.091Z,3.17
2023-03-18T13:25:59.559Z,3.24
2023-03-18T13:28:53.229Z,3.16
2023-03-18T13:31:29.356Z,3.17
2023-03-18T13:34:28.224Z,3.09
2023-03-18T13:37:22.960Z,3.18
2023-03-18T13:40:22.427Z,3.23
2023-03-18T13:42:51.692Z,3.22
2023-03-18T13:45:26.031Z,3.24
2023-03-18T13:47:59.487Z,3.20
2023-03-18T13:50:37.574Z,3.20
2023-03-18T13:53:18.007Z,3.17
2023-03-18T13:55:50.325Z,3.20
2023-03-18T13:58:22.950Z,3.29
2023-03-18T14:01:29.492Z,3.22
2023-03-18T14:04:02.469Z,3.20
2023-03-18T14:06:48.770Z,3.22
2023-03-18T14:09:34.174Z,3.06
2023-03-18T14:12:21.379Z,3.03
2023-03-18T14:15:03.216Z,3.03
2023-03-18T14:17:46.056Z,3.01
2023-03-18T14:20:23.950Z,2.99
2023-03-18T14:22:53.463Z,3.03
2023-03-18T14:25:41.527Z,3.01
2023-03-18T14:28:22.932Z,2.96
2023-03-18T14:31:00.840Z,2.89
2023-03-18T14:33:34.657Z,2.78
2023-03-18T14:36:09.378Z,2.70
2023-03-18T14:38:47.532Z,2.65
2023-03-18T14:41:23.718Z,2.69
2023-03-18T14:44:04.660Z,2.68
2023-03-18T14:46:36.737Z,2.58
2023-03-18T14:49:30.202Z,2.48
2023-03-18T14:51:59.774Z,2.43
2023-03-18T14:54:28.496Z,2.51
2023-03-18T14:56:59.251Z,2.51
2023-03-18T14:59:28.098Z,2.37
2023-03-18T15:01:57.379Z,2.38
2023-03-18T15:04:27.161Z,2.46
2023-03-18T15:06:57.002Z,2.42
2023-03-18T15:09:27.259Z,2.25
2023-03-18T15:12:01.100Z,2.04
2023-03-18T15:14:31.820Z,2.25
2023-03-18T15:17:02.269Z,2.32
2023-03-18T15:19:30.762Z,2.24
2023-03-18T15:22:03.714Z,2.33
2023-03-18T15:24:33.385Z,2.35
2023-03-18T15:27:07.220Z,2.17
2023-03-18T15:29:38.680Z,2.06
2023-03-18T15:32:10.623Z,2.06
2023-03-18T15:34:42.585Z,2.09
2023-03-18T15:37:28.030Z,2.21
2023-03-18T15:40:04.821Z,2.18
2023-03-18T15:42:35.226Z,2.17
2023-03-18T15:45:07.841Z,2.14
2023-03-18T15:47:36.946Z,2.08
2023-03-18T15:50:20.861Z,2.02
2023-03-18T15:52:49.662Z,1.96
2023-03-18T15:55:29.617Z,1.67
2023-03-18T15:58:00.390Z,1.69
2023-03-18T16:00:30.286Z,1.58
2023-03-18T16:03:00.821Z,1.80
2023-03-18T16:05:32.449Z,1.77
2023-03-18T16:08:01.312Z,1.60
2023-03-18T16:10:29.875Z,1.76
2023-03-18T16:13:02.495Z,1.80
2023-03-18T16:15:31.905Z,1.67
2023-03-18T16:18:01.604Z,1.54
2023-03-18T16:20:34.754Z,1.58
2023-03-18T16:23:03.145Z,1.69
2023-03-18T16:25:31.741Z,1.54
2023-03-18T16:28:02.080Z,1.57
2023-03-18T16:30:33.602Z,1.59
2023-03-18T16:33:03.636Z,1.49
2023-03-18T16:35:34.866Z,1.28
2023-03-18T16:38:03.767Z,1.20
2023-03-18T16:40:33.048Z,1.36
2023-03-18T16:43:03.011Z,1.35
2023-03-18T16:45:32.752Z,1.29
2023-03-18T16:48:03.764Z,1.51
2023-03-18T16:50:35.428Z,1.39
2023-03-18T16:53:05.190Z,1.47
2023-03-18T16:55:34.868Z,1.32
2023-03-18T16:58:04.830Z,1.30
2023-03-18T17:00:34.203Z,1.26
2023-03-18T17:03:03.063Z,1.08
2023-03-18T17:05:32.238Z,1.11
2023-03-18T17:08:01.006Z,1.15
2023-03-18T17:10:32.541Z,1.27
2023-03-18T17:13:08.214Z,1.17
2023-03-18T17:15:39.272Z,1.06
2023-03-18T17:18:12.131Z,1.13
2023-03-18T17:20:41.679Z,1.17
2023-03-18T17:23:19.621Z,1.27
2023-03-18T17:25:53.525Z,0.92
2023-03-18T17:28:41.676Z,1.09
2023-03-18T17:31:12.114Z,0.98
2023-03-18T17:33:40.520Z,0.76
2023-03-18T17:36:12.514Z,0.67
2023-03-18T17:38:41.294Z,0.82
2023-03-18T17:41:16.375Z,0.79
2023-03-18T17:43:44.929Z,0.99
2023-03-18T17:46:19.095Z,1.08
2023-03-18T17:48:48.874Z,0.93
2023-03-18T17:51:38.161Z,1.07
2023-03-18T17:54:08.428Z,0.94
2023-03-18T17:56:38.311Z,0.75
2023-03-18T17:59:15.204Z,0.80
2023-03-18T18:01:54.360Z,0.80
2023-03-18T18:04:24.860Z,0.93
2023-03-18T18:06:54.861Z,0.91
2023-03-18T18:09:23.532Z,0.69
2023-03-18T18:11:52.372Z,0.79
2023-03-18T18:14:23.327Z,0.51
2023-03-18T18:16:56.481Z,0.60
2023-03-18T18:19:25.400Z,0.44
2023-03-18T18:21:54.943Z,0.54
2023-03-18T18:24:25.357Z,0.64
2023-03-18T18:26:53.843Z,0.59
2023-03-18T18:29:23.764Z,0.41
2023-03-18T18:31:54.195Z,0.36
2023-03-18T18:34:23.214Z,0.46
2023-03-18T18:36:51.693Z,0.48
2023-03-18T18:39:21.151Z,0.55
2023-03-18T18:41:49.737Z,0.48
2023-03-18T18:44:18.411Z,0.38
2023-03-18T18:46:47.427Z,0.34
2023-03-18T18:49:23.331Z,0.26
2023-03-18T18:51:53.530Z,0.33
2023-03-18T18:54:22.746Z,0.35
2023-03-18T18:56:52.283Z,0.28
2023-03-18T18:59:26.977Z,0.24
2023-03-18T19:01:55.635Z,0.14
2023-03-18T19:04:25.681Z,0.15
2023-03-18T19:06:54.862Z,0.19
2023-03-18T19:09:28.456Z,0.08
2023-03-18T19:11:57.299Z,0.02
2023-03-18T19:14:27.296Z,-0.02
2023-03-18T19:16:59.088Z,-0.05
2023-03-18T19:19:34.500Z,-0.14
2023-03-18T19:22:04.637Z,-0.15
2023-03-18T19:24:36.925Z,-0.31
2023-03-18T19:27:10.505Z,-0.23
2023-03-18T19:29:40.324Z,-0.35
2023-03-18T19:32:13.902Z,-0.35
2023-03-18T19:34:46.555Z,-0.44
2023-03-18T19:37:18.877Z,-0.53
2023-03-18T19:39:47.664Z,-0.71
2023-03-18T19:42:17.559Z,-0.59
2023-03-18T19:44:46.802Z,-0.55
2023-03-18T19:47:20.914Z,-0.52
2023-03-18T19:49:50.964Z,-0.59
2023-03-18T19:52:20.726Z,-0.53
2023-03-18T19:54:49.550Z,-0.62
2023-03-18T19:57:19.348Z,-0.71
2023-03-18T19:59:49.923Z,-0.71
2023-03-18T20:02:22.026Z,-0.60
2023-03-18T20:04:55.691Z,-0.84
2023-03-18T20:07:25.378Z,-0.92
2023-03-18T20:09:54.693Z,-0.82
2023-03-18T20:12:26.015Z,-0.87
2023-03-18T20:14:54.521Z,-0.91
2023-03-18T20:17:32.179Z,-0.87
2023-03-18T20:20:02.354Z,-0.93
2023-03-18T20:22:34.057Z,-1.08
2023-03-18T20:25:02.612Z,-0.93
2023-03-18T20:27:31.792Z,-0.92
2023-03-18T20:30:00.968Z,-1.00
2023-03-18T20:32:29.440Z,-1.19
2023-03-18T20:34:58.185Z,-0.95
2023-03-18T20:37:32.550Z,-0.90
2023-03-18T20:40:01.474Z,-0.87
2023-03-18T20:42:31.399Z,-0.89
2023-03-18T20:45:00.265Z,-0.81
2023-03-18T20:47:28.683Z,-0.88
2023-03-18T20:49:57.271Z,-0.92
2023-03-18T20:52:30.068Z,-1.04
2023-03-18T20:54:58.886Z,-1.11
2023-03-18T20:57:27.525Z,-1.12
2023-03-18T20:59:58.306Z,-1.03
2023-03-18T21:02:31.950Z,-1.14
2023-03-18T21:05:01.721Z,-1.18
2023-03-18T21:07:32.914Z,-1.21
2023-03-18T21:10:01.357Z,-1.39
2023-03-18T21:12:33.014Z,-1.27
2023-03-18T21:15:01.636Z,-1.30
2023-03-18T21:17:32.012Z,-1.41
2023-03-18T21:20:15.243Z,-1.63
2023-03-18T21:22:49.116Z,-1.55
2023-03-18T21:25:22.150Z,-1.63
2023-03-18T21:27:51.881Z,-1.65
2023-03-18T21:30:22.057Z,-1.53
2023-03-18T21:32:51.320Z,-1.57
2023-03-18T21:35:21.952Z,-1.60
2023-03-18T21:37:52.279Z,-1.62
2023-03-18T21:40:23.195Z,-1.70
2023-03-18T21:42:52.177Z,-1.68
2023-03-18T21:45:22.992Z,-1.83
2023-03-18T21:47:52.628Z,-1.88
2023-03-18T21:50:24.086Z,-1.93
2023-03-18T21:52:54.935Z,-2.02
2023-03-18T21:55:23.770Z,-1.93
2023-03-18T21:57:52.117Z,-2.01
2023-03-18T22:00:21.768Z,-1.95
2023-03-18T22:02:50.681Z,-2.08
2023-03-18T22:05:20.589Z,-2.10
2023-03-18T22:07:51.008Z,-1.99
2023-03-18T22:10:23.254Z,-2.04
2023-03-18T22:12:52.380Z,-1.70
2023-03-18T22:15:38.799Z,-1.76
2023-03-18T22:18:08.520Z,-1.88
2023-03-18T22:20:40.704Z,-1.94
2023-03-18T22:23:20.527Z,-1.92
2023-03-18T22:25:51.858Z,-1.93
2023-03-18T22:28:21.612Z,-2.01
2023-03-18T22:30:52.622Z,-2.01
2023-03-18T22:33:24.031Z,-2.08
2023-03-18T22:35:52.497Z,-2.03
2023-03-18T22:38:22.628Z,-1.97
2023-03-18T22:40:54.373Z,-2.01
2023-03-18T22:43:31.752Z,-2.08
2023-03-18T22:46:00.917Z,-1.92
2023-03-18T22:48:29.748Z,-2.08
2023-03-18T22:51:00.254Z,-2.05
2023-03-18T22:53:31.591Z,-2.06
2023-03-18T22:56:05.136Z,-2.07
2023-03-18T22:58:33.768Z,-2.16
2023-03-18T23:01:02.080Z,-2.12
2023-03-18T23:03:33.795Z,-2.24
2023-03-18T23:06:03.557Z,-2.35
2023-03-18T23:08:32.348Z,-2.34
2023-03-18T23:11:03.010Z,-2.34
2023-03-18T23:13:35.829Z,-2.47
2023-03-18T23:16:05.444Z,-2.47
2023-03-18T23:18:34.572Z,-2.52
2023-03-18T23:21:03.151Z,-2.52
2023-03-18T23:23:31.926Z,-2.57
2023-03-18T23:26:04.362Z,-2.59
2023-03-18T23:28:41.012Z,-2.67
2023-03-18T23:31:12.819Z,-2.71
2023-03-18T23:33:41.524Z,-2.73
2023-03-18T23:36:10.887Z,-2.82
2023-03-18T23:38:39.401Z,-2.84
2023-03-18T23:41:09.441Z,-2.90
2023-03-18T23:43:39.184Z,-2.93
2023-03-18T23:46:08.363Z,-3.04
2023-03-18T23:48:37.161Z,-2.91
2023-03-18T23:51:06.051Z,-2.95
2023-03-18T23:53:34.459Z,-3.04
2023-03-18T23:56:03.038Z,-3.07
2023-03-18T23:58:32.727Z,-3.19
